sensor_id;sensor_type;location;lat;lon;timestamp;P1;durP1;ratioP1;P2;durP2;ratioP2
52838;SDS011;39219;53.678;9.856;2023-12-22T00:01:56;16.70;;;3.22;;
52838;SDS011;39219;53.678;9.856;2023-12-22T00:04:23;22.33;;;3.85;;
52838;SDS011;39219;53.678;9.856;2023-12-22T00:06:50;15.88;;;3.60;;
52838;SDS011;39219;53.678;9.856;2023-12-22T00:09:17;20.98;;;4.05;;
52838;SDS011;39219;53.678;9.856;2023-12-22T00:11:43;21.20;;;3.78;;
52838;SDS011;39219;53.678;9.856;2023-12-22T00:14:09;22.27;;;4.22;;
52838;SDS011;39219;53.678;9.856;2023-12-22T00:16:36;23.80;;;4.15;;
52838;SDS011;39219;53.678;9.856;2023-12-22T00:19:03;20.45;;;3.38;;
52838;SDS011;39219;53.678;9.856;2023-12-22T00:21:29;19.17;;;3.83;;
52838;SDS011;39219;53.678;9.856;2023-12-22T00:23:58;22.80;;;3.95;;
52838;SDS011;39219;53.678;9.856;2023-12-22T00:26:24;27.05;;;4.95;;
52838;SDS011;39219;53.678;9.856;2023-12-22T00:28:50;18.90;;;3.50;;
52838;SDS011;39219;53.678;9.856;2023-12-22T00:31:16;23.63;;;3.83;;
52838;SDS011;39219;53.678;9.856;2023-12-22T00:33:43;20.30;;;3.58;;
52838;SDS011;39219;53.678;9.856;2023-12-22T00:36:10;17.98;;;3.85;;
52838;SDS011;39219;53.678;9.856;2023-12-22T00:38:36;15.52;;;3.28;;
52838;SDS011;39219;53.678;9.856;2023-12-22T00:41:04;15.77;;;3.10;;
52838;SDS011;39219;53.678;9.856;2023-12-22T00:43:30;20.92;;;3.35;;
52838;SDS011;39219;53.678;9.856;2023-12-22T00:45:56;16.38;;;3.75;;
52838;SDS011;39219;53.678;9.856;2023-12-22T00:48:23;21.02;;;3.40;;
52838;SDS011;39219;53.678;9.856;2023-12-22T00:50:49;19.02;;;3.15;;
52838;SDS011;39219;53.678;9.856;2023-12-22T00:53:15;22.95;;;3.90;;
52838;SDS011;39219;53.678;9.856;2023-12-22T00:55:42;20.13;;;3.75;;
52838;SDS011;39219;53.678;9.856;2023-12-22T00:58:09;24.95;;;4.60;;
52838;SDS011;39219;53.678;9.856;2023-12-22T01:00:36;20.17;;;4.32;;
52838;SDS011;39219;53.678;9.856;2023-12-22T01:03:02;24.13;;;4.25;;
52838;SDS011;39219;53.678;9.856;2023-12-22T01:05:29;19.88;;;4.15;;
52838;SDS011;39219;53.678;9.856;2023-12-22T01:07:55;20.90;;;3.85;;
52838;SDS011;39219;53.678;9.856;2023-12-22T01:10:21;24.38;;;3.83;;
52838;SDS011;39219;53.678;9.856;2023-12-22T01:12:47;20.88;;;3.90;;
52838;SDS011;39219;53.678;9.856;2023-12-22T01:15:15;16.67;;;3.30;;
52838;SDS011;39219;53.678;9.856;2023-12-22T01:17:41;20.83;;;3.88;;
52838;SDS011;39219;53.678;9.856;2023-12-22T01:20:08;16.30;;;2.83;;
52838;SDS011;39219;53.678;9.856;2023-12-22T01:22:34;15.25;;;2.90;;
52838;SDS011;39219;53.678;9.856;2023-12-22T01:25:03;14.13;;;3.00;;
52838;SDS011;39219;53.678;9.856;2023-12-22T01:27:30;15.20;;;2.53;;
52838;SDS011;39219;53.678;9.856;2023-12-22T01:29:56;12.63;;;2.33;;
52838;SDS011;39219;53.678;9.856;2023-12-22T01:32:24;10.43;;;2.60;;
52838;SDS011;39219;53.678;9.856;2023-12-22T01:34:50;11.98;;;2.40;;
52838;SDS011;39219;53.678;9.856;2023-12-22T01:37:16;8.10;;;1.92;;
52838;SDS011;39219;53.678;9.856;2023-12-22T01:39:43;8.50;;;1.50;;
52838;SDS011;39219;53.678;9.856;2023-12-22T01:42:09;6.50;;;1.25;;
52838;SDS011;39219;53.678;9.856;2023-12-22T01:44:35;9.82;;;1.60;;
52838;SDS011;39219;53.678;9.856;2023-12-22T01:47:02;9.32;;;1.58;;
52838;SDS011;39219;53.678;9.856;2023-12-22T01:49:29;6.20;;;1.25;;
52838;SDS011;39219;53.678;9.856;2023-12-22T01:51:56;5.28;;;1.65;;
52838;SDS011;39219;53.678;9.856;2023-12-22T01:54:22;4.25;;;1.40;;
52838;SDS011;39219;53.678;9.856;2023-12-22T01:56:49;6.88;;;1.48;;
52838;SDS011;39219;53.678;9.856;2023-12-22T01:59:15;7.80;;;1.60;;
52838;SDS011;39219;53.678;9.856;2023-12-22T02:01:41;3.78;;;1.30;;
52838;SDS011;39219;53.678;9.856;2023-12-22T02:04:09;8.38;;;1.58;;
52838;SDS011;39219;53.678;9.856;2023-12-22T02:06:37;8.10;;;1.80;;
52838;SDS011;39219;53.678;9.856;2023-12-22T02:09:03;7.47;;;1.65;;
52838;SDS011;39219;53.678;9.856;2023-12-22T02:11:30;7.13;;;1.52;;
52838;SDS011;39219;53.678;9.856;2023-12-22T02:13:57;8.65;;;1.92;;
52838;SDS011;39219;53.678;9.856;2023-12-22T02:16:30;9.02;;;2.00;;
52838;SDS011;39219;53.678;9.856;2023-12-22T02:18:58;11.02;;;2.20;;
52838;SDS011;39219;53.678;9.856;2023-12-22T02:21:25;12.20;;;2.00;;
52838;SDS011;39219;53.678;9.856;2023-12-22T02:23:52;9.35;;;2.03;;
52838;SDS011;39219;53.678;9.856;2023-12-22T02:26:20;7.95;;;1.90;;
52838;SDS011;39219;53.678;9.856;2023-12-22T02:28:47;13.00;;;2.28;;
52838;SDS011;39219;53.678;9.856;2023-12-22T02:31:16;8.63;;;2.22;;
52838;SDS011;39219;53.678;9.856;2023-12-22T02:33:43;11.60;;;2.22;;
52838;SDS011;39219;53.678;9.856;2023-12-22T02:36:10;14.50;;;2.70;;
52838;SDS011;39219;53.678;9.856;2023-12-22T02:38:37;14.57;;;2.42;;
52838;SDS011;39219;53.678;9.856;2023-12-22T02:41:06;14.82;;;2.63;;
52838;SDS011;39219;53.678;9.856;2023-12-22T02:43:32;8.85;;;2.10;;
52838;SDS011;39219;53.678;9.856;2023-12-22T02:45:59;11.80;;;2.28;;
52838;SDS011;39219;53.678;9.856;2023-12-22T02:48:24;10.05;;;2.08;;
52838;SDS011;39219;53.678;9.856;2023-12-22T02:50:50;12.65;;;2.90;;
52838;SDS011;39219;53.678;9.856;2023-12-22T02:53:17;12.70;;;2.08;;
52838;SDS011;39219;53.678;9.856;2023-12-22T02:55:43;7.43;;;1.90;;
52838;SDS011;39219;53.678;9.856;2023-12-22T02:58:10;4.32;;;1.00;;
52838;SDS011;39219;53.678;9.856;2023-12-22T03:00:37;4.03;;;0.90;;
52838;SDS011;39219;53.678;9.856;2023-12-22T03:03:03;4.57;;;0.70;;
52838;SDS011;39219;53.678;9.856;2023-12-22T03:05:30;5.32;;;1.20;;
52838;SDS011;39219;53.678;9.856;2023-12-22T03:07:56;3.90;;;1.08;;
52838;SDS011;39219;53.678;9.856;2023-12-22T03:10:22;2.97;;;0.98;;
52838;SDS011;39219;53.678;9.856;2023-12-22T03:12:49;6.88;;;1.13;;
52838;SDS011;39219;53.678;9.856;2023-12-22T03:15:16;7.25;;;1.33;;
52838;SDS011;39219;53.678;9.856;2023-12-22T03:17:42;9.98;;;1.30;;
52838;SDS011;39219;53.678;9.856;2023-12-22T03:20:09;5.57;;;1.05;;
52838;SDS011;39219;53.678;9.856;2023-12-22T03:22:35;8.10;;;1.20;;
52838;SDS011;39219;53.678;9.856;2023-12-22T03:25:02;4.97;;;1.13;;
52838;SDS011;39219;53.678;9.856;2023-12-22T03:27:28;5.95;;;0.90;;
52838;SDS011;39219;53.678;9.856;2023-12-22T03:29:54;5.50;;;1.10;;
52838;SDS011;39219;53.678;9.856;2023-12-22T03:32:22;6.88;;;1.50;;
52838;SDS011;39219;53.678;9.856;2023-12-22T03:34:48;5.47;;;0.80;;
52838;SDS011;39219;53.678;9.856;2023-12-22T03:37:14;4.15;;;1.08;;
52838;SDS011;39219;53.678;9.856;2023-12-22T03:39:41;4.57;;;1.00;;
52838;SDS011;39219;53.678;9.856;2023-12-22T03:42:07;4.20;;;0.90;;
52838;SDS011;39219;53.678;9.856;2023-12-22T03:44:33;5.38;;;1.40;;
52838;SDS011;39219;53.678;9.856;2023-12-22T03:46:59;9.55;;;1.20;;
52838;SDS011;39219;53.678;9.856;2023-12-22T03:49:27;6.20;;;1.65;;
52838;SDS011;39219;53.678;9.856;2023-12-22T03:51:53;6.82;;;1.65;;
52838;SDS011;39219;53.678;9.856;2023-12-22T03:54:19;11.10;;;1.73;;
52838;SDS011;39219;53.678;9.856;2023-12-22T03:56:46;7.40;;;1.63;;
52838;SDS011;39219;53.678;9.856;2023-12-22T03:59:12;11.15;;;2.25;;
52838;SDS011;39219;53.678;9.856;2023-12-22T04:01:38;9.52;;;1.77;;
52838;SDS011;39219;53.678;9.856;2023-12-22T04:04:05;11.48;;;2.00;;
52838;SDS011;39219;53.678;9.856;2023-12-22T04:06:32;12.15;;;1.90;;
52838;SDS011;39219;53.678;9.856;2023-12-22T04:09:00;9.13;;;2.05;;
52838;SDS011;39219;53.678;9.856;2023-12-22T04:11:27;15.52;;;2.75;;
52838;SDS011;39219;53.678;9.856;2023-12-22T04:13:53;15.38;;;2.90;;
52838;SDS011;39219;53.678;9.856;2023-12-22T04:16:19;14.95;;;2.70;;
52838;SDS011;39219;53.678;9.856;2023-12-22T04:18:45;12.60;;;2.78;;
52838;SDS011;39219;53.678;9.856;2023-12-22T04:21:12;8.02;;;2.08;;
52838;SDS011;39219;53.678;9.856;2023-12-22T04:23:39;13.98;;;2.60;;
52838;SDS011;39219;53.678;9.856;2023-12-22T04:26:05;13.93;;;2.42;;
52838;SDS011;39219;53.678;9.856;2023-12-22T04:28:32;12.70;;;2.70;;
52838;SDS011;39219;53.678;9.856;2023-12-22T04:30:58;13.35;;;2.50;;
52838;SDS011;39219;53.678;9.856;2023-12-22T04:33:24;14.60;;;2.55;;
52838;SDS011;39219;53.678;9.856;2023-12-22T04:35:51;12.50;;;2.28;;
52838;SDS011;39219;53.678;9.856;2023-12-22T04:38:17;10.23;;;1.70;;
52838;SDS011;39219;53.678;9.856;2023-12-22T04:40:45;10.68;;;1.80;;
52838;SDS011;39219;53.678;9.856;2023-12-22T04:43:11;12.63;;;1.98;;
52838;SDS011;39219;53.678;9.856;2023-12-22T04:45:37;10.27;;;1.92;;
52838;SDS011;39219;53.678;9.856;2023-12-22T04:48:04;15.20;;;2.22;;
52838;SDS011;39219;53.678;9.856;2023-12-22T04:50:30;12.35;;;1.98;;
52838;SDS011;39219;53.678;9.856;2023-12-22T04:52:57;18.70;;;2.92;;
52838;SDS011;39219;53.678;9.856;2023-12-22T04:55:23;13.35;;;2.28;;
52838;SDS011;39219;53.678;9.856;2023-12-22T04:57:51;16.40;;;2.75;;
52838;SDS011;39219;53.678;9.856;2023-12-22T05:00:17;13.02;;;2.30;;
52838;SDS011;39219;53.678;9.856;2023-12-22T05:02:43;13.68;;;2.67;;
52838;SDS011;39219;53.678;9.856;2023-12-22T05:05:09;10.02;;;2.08;;
52838;SDS011;39219;53.678;9.856;2023-12-22T05:07:36;13.18;;;2.47;;
52838;SDS011;39219;53.678;9.856;2023-12-22T05:10:03;11.40;;;2.13;;
52838;SDS011;39219;53.678;9.856;2023-12-22T05:12:29;13.27;;;2.05;;
52838;SDS011;39219;53.678;9.856;2023-12-22T05:14:57;16.83;;;2.45;;
52838;SDS011;39219;53.678;9.856;2023-12-22T05:17:23;7.80;;;1.58;;
52838;SDS011;39219;53.678;9.856;2023-12-22T05:19:49;11.07;;;2.08;;
52838;SDS011;39219;53.678;9.856;2023-12-22T05:22:15;13.55;;;2.20;;
52838;SDS011;39219;53.678;9.856;2023-12-22T05:24:42;9.95;;;2.45;;
52838;SDS011;39219;53.678;9.856;2023-12-22T05:27:08;12.95;;;2.50;;
52838;SDS011;39219;53.678;9.856;2023-12-22T05:29:34;10.82;;;1.77;;
52838;SDS011;39219;53.678;9.856;2023-12-22T05:32:02;12.98;;;2.10;;
52838;SDS011;39219;53.678;9.856;2023-12-22T05:34:28;11.18;;;2.60;;
52838;SDS011;39219;53.678;9.856;2023-12-22T05:36:54;12.40;;;2.50;;
52838;SDS011;39219;53.678;9.856;2023-12-22T05:39:21;14.75;;;2.17;;
52838;SDS011;39219;53.678;9.856;2023-12-22T05:41:47;10.10;;;1.75;;
52838;SDS011;39219;53.678;9.856;2023-12-22T05:44:13;14.77;;;2.15;;
52838;SDS011;39219;53.678;9.856;2023-12-22T05:46:39;11.00;;;1.73;;
52838;SDS011;39219;53.678;9.856;2023-12-22T05:49:07;8.80;;;1.90;;
52838;SDS011;39219;53.678;9.856;2023-12-22T05:51:37;10.02;;;1.63;;
52838;SDS011;39219;53.678;9.856;2023-12-22T05:54:04;11.20;;;1.98;;
52838;SDS011;39219;53.678;9.856;2023-12-22T05:56:29;5.70;;;1.77;;
52838;SDS011;39219;53.678;9.856;2023-12-22T05:58:55;11.63;;;2.28;;
52838;SDS011;39219;53.678;9.856;2023-12-22T06:01:22;5.82;;;1.35;;
52838;SDS011;39219;53.678;9.856;2023-12-22T06:03:48;6.97;;;1.75;;
52838;SDS011;39219;53.678;9.856;2023-12-22T06:06:16;10.90;;;1.85;;
52838;SDS011;39219;53.678;9.856;2023-12-22T06:08:43;9.23;;;1.80;;
52838;SDS011;39219;53.678;9.856;2023-12-22T06:11:09;14.30;;;2.30;;
52838;SDS011;39219;53.678;9.856;2023-12-22T06:13:36;9.77;;;1.80;;
52838;SDS011;39219;53.678;9.856;2023-12-22T06:16:02;15.63;;;2.35;;
52838;SDS011;39219;53.678;9.856;2023-12-22T06:18:28;12.40;;;2.40;;
52838;SDS011;39219;53.678;9.856;2023-12-22T06:20:55;11.80;;;2.13;;
52838;SDS011;39219;53.678;9.856;2023-12-22T06:23:22;15.23;;;2.60;;
52838;SDS011;39219;53.678;9.856;2023-12-22T06:25:48;13.40;;;2.90;;
52838;SDS011;39219;53.678;9.856;2023-12-22T06:28:15;17.80;;;2.72;;
52838;SDS011;39219;53.678;9.856;2023-12-22T06:30:42;16.65;;;2.60;;
52838;SDS011;39219;53.678;9.856;2023-12-22T06:33:09;18.88;;;3.03;;
52838;SDS011;39219;53.678;9.856;2023-12-22T06:35:36;11.45;;;2.40;;
52838;SDS011;39219;53.678;9.856;2023-12-22T06:38:02;14.30;;;3.05;;
52838;SDS011;39219;53.678;9.856;2023-12-22T06:40:32;16.42;;;2.72;;
52838;SDS011;39219;53.678;9.856;2023-12-22T06:42:58;16.60;;;3.10;;
52838;SDS011;39219;53.678;9.856;2023-12-22T06:45:24;15.40;;;2.67;;
52838;SDS011;39219;53.678;9.856;2023-12-22T06:47:50;14.07;;;2.83;;
52838;SDS011;39219;53.678;9.856;2023-12-22T06:50:17;14.50;;;3.00;;
52838;SDS011;39219;53.678;9.856;2023-12-22T06:52:43;17.55;;;3.28;;
52838;SDS011;39219;53.678;9.856;2023-12-22T06:55:09;19.38;;;3.20;;
52838;SDS011;39219;53.678;9.856;2023-12-22T06:57:37;21.98;;;3.38;;
52838;SDS011;39219;53.678;9.856;2023-12-22T07:00:04;21.35;;;3.75;;
52838;SDS011;39219;53.678;9.856;2023-12-22T07:02:30;25.00;;;4.05;;
52838;SDS011;39219;53.678;9.856;2023-12-22T07:05:04;23.60;;;4.10;;
52838;SDS011;39219;53.678;9.856;2023-12-22T07:07:50;22.27;;;4.07;;
52838;SDS011;39219;53.678;9.856;2023-12-22T07:10:16;24.23;;;4.00;;
52838;SDS011;39219;53.678;9.856;2023-12-22T07:12:44;20.55;;;3.85;;
52838;SDS011;39219;53.678;9.856;2023-12-22T07:15:10;26.33;;;4.20;;
52838;SDS011;39219;53.678;9.856;2023-12-22T07:17:36;19.65;;;3.92;;
52838;SDS011;39219;53.678;9.856;2023-12-22T07:20:03;22.63;;;3.88;;
52838;SDS011;39219;53.678;9.856;2023-12-22T07:22:29;25.42;;;3.67;;
52838;SDS011;39219;53.678;9.856;2023-12-22T07:24:56;16.23;;;3.30;;
52838;SDS011;39219;53.678;9.856;2023-12-22T07:27:22;19.38;;;3.35;;
52838;SDS011;39219;53.678;9.856;2023-12-22T07:29:50;21.25;;;3.47;;
52838;SDS011;39219;53.678;9.856;2023-12-22T07:32:16;20.42;;;4.07;;
52838;SDS011;39219;53.678;9.856;2023-12-22T07:34:42;18.77;;;3.30;;
52838;SDS011;39219;53.678;9.856;2023-12-22T07:37:09;22.65;;;3.60;;
52838;SDS011;39219;53.678;9.856;2023-12-22T07:39:35;23.45;;;4.13;;
52838;SDS011;39219;53.678;9.856;2023-12-22T07:42:01;18.52;;;3.50;;
52838;SDS011;39219;53.678;9.856;2023-12-22T07:44:27;20.25;;;3.70;;
52838;SDS011;39219;53.678;9.856;2023-12-22T07:46:58;22.33;;;3.65;;
52838;SDS011;39219;53.678;9.856;2023-12-22T07:49:24;19.30;;;4.00;;
52838;SDS011;39219;53.678;9.856;2023-12-22T07:51:51;15.43;;;3.05;;
52838;SDS011;39219;53.678;9.856;2023-12-22T07:54:17;15.70;;;2.97;;
52838;SDS011;39219;53.678;9.856;2023-12-22T07:56:43;17.20;;;2.63;;
52838;SDS011;39219;53.678;9.856;2023-12-22T07:59:10;13.95;;;3.05;;
52838;SDS011;39219;53.678;9.856;2023-12-22T08:01:36;13.57;;;2.42;;
52838;SDS011;39219;53.678;9.856;2023-12-22T08:04:04;10.02;;;2.17;;
52838;SDS011;39219;53.678;9.856;2023-12-22T08:06:30;14.38;;;3.28;;
52838;SDS011;39219;53.678;9.856;2023-12-22T08:08:56;11.48;;;2.22;;
52838;SDS011;39219;53.678;9.856;2023-12-22T08:11:23;17.13;;;2.60;;
52838;SDS011;39219;53.678;9.856;2023-12-22T08:13:50;13.68;;;1.95;;
52838;SDS011;39219;53.678;9.856;2023-12-22T08:16:16;13.70;;;2.35;;
52838;SDS011;39219;53.678;9.856;2023-12-22T08:18:42;17.25;;;2.92;;
52838;SDS011;39219;53.678;9.856;2023-12-22T08:21:10;13.50;;;2.55;;
52838;SDS011;39219;53.678;9.856;2023-12-22T08:23:36;11.90;;;2.40;;
52838;SDS011;39219;53.678;9.856;2023-12-22T08:26:03;15.75;;;2.70;;
52838;SDS011;39219;53.678;9.856;2023-12-22T08:28:29;16.77;;;3.10;;
52838;SDS011;39219;53.678;9.856;2023-12-22T08:30:55;15.77;;;2.75;;
52838;SDS011;39219;53.678;9.856;2023-12-22T08:33:21;16.73;;;3.22;;
52838;SDS011;39219;53.678;9.856;2023-12-22T08:35:48;19.35;;;2.92;;
52838;SDS011;39219;53.678;9.856;2023-12-22T08:38:15;15.68;;;2.78;;
52838;SDS011;39219;53.678;9.856;2023-12-22T08:40:42;19.77;;;2.88;;
52838;SDS011;39219;53.678;9.856;2023-12-22T08:43:09;21.02;;;3.22;;
52838;SDS011;39219;53.678;9.856;2023-12-22T08:45:35;14.85;;;3.05;;
52838;SDS011;39219;53.678;9.856;2023-12-22T08:48:02;12.48;;;2.25;;
52838;SDS011;39219;53.678;9.856;2023-12-22T08:50:32;15.50;;;2.67;;
52838;SDS011;39219;53.678;9.856;2023-12-22T08:52:59;6.93;;;1.63;;
52838;SDS011;39219;53.678;9.856;2023-12-22T08:55:27;11.80;;;1.77;;
52838;SDS011;39219;53.678;9.856;2023-12-22T08:57:53;10.38;;;2.20;;
52838;SDS011;39219;53.678;9.856;2023-12-22T09:00:20;8.20;;;1.45;;
52838;SDS011;39219;53.678;9.856;2023-12-22T09:02:46;9.25;;;2.00;;
52838;SDS011;39219;53.678;9.856;2023-12-22T09:05:12;9.45;;;1.67;;
52838;SDS011;39219;53.678;9.856;2023-12-22T09:07:39;6.70;;;1.70;;
52838;SDS011;39219;53.678;9.856;2023-12-22T09:10:05;17.55;;;2.08;;
52838;SDS011;39219;53.678;9.856;2023-12-22T09:12:33;11.55;;;2.25;;
52838;SDS011;39219;53.678;9.856;2023-12-22T09:14:59;7.78;;;1.55;;
52838;SDS011;39219;53.678;9.856;2023-12-22T09:17:26;12.80;;;2.55;;
52838;SDS011;39219;53.678;9.856;2023-12-22T09:19:52;8.90;;;1.85;;
52838;SDS011;39219;53.678;9.856;2023-12-22T09:22:18;10.50;;;2.15;;
52838;SDS011;39219;53.678;9.856;2023-12-22T09:24:45;13.10;;;2.22;;
52838;SDS011;39219;53.678;9.856;2023-12-22T09:27:11;13.95;;;2.67;;
52838;SDS011;39219;53.678;9.856;2023-12-22T09:29:39;10.95;;;2.10;;
52838;SDS011;39219;53.678;9.856;2023-12-22T09:32:05;10.55;;;2.17;;
52838;SDS011;39219;53.678;9.856;2023-12-22T09:34:32;11.45;;;2.13;;
52838;SDS011;39219;53.678;9.856;2023-12-22T09:36:58;14.05;;;2.55;;
52838;SDS011;39219;53.678;9.856;2023-12-22T09:39:24;11.48;;;2.30;;
52838;SDS011;39219;53.678;9.856;2023-12-22T09:41:54;14.43;;;2.80;;
52838;SDS011;39219;53.678;9.856;2023-12-22T09:44:21;14.93;;;2.80;;
52838;SDS011;39219;53.678;9.856;2023-12-22T09:46:48;11.25;;;2.20;;
52838;SDS011;39219;53.678;9.856;2023-12-22T09:49:15;16.33;;;2.88;;
52838;SDS011;39219;53.678;9.856;2023-12-22T09:51:42;12.18;;;2.22;;
52838;SDS011;39219;53.678;9.856;2023-12-22T09:54:09;14.35;;;2.70;;
52838;SDS011;39219;53.678;9.856;2023-12-22T09:56:35;12.25;;;2.60;;
52838;SDS011;39219;53.678;9.856;2023-12-22T09:59:06;15.07;;;2.40;;
52838;SDS011;39219;53.678;9.856;2023-12-22T10:01:33;12.45;;;2.97;;
52838;SDS011;39219;53.678;9.856;2023-12-22T10:04:01;11.77;;;2.53;;
52838;SDS011;39219;53.678;9.856;2023-12-22T10:06:27;12.43;;;2.90;;
52838;SDS011;39219;53.678;9.856;2023-12-22T10:08:54;13.98;;;2.60;;
52838;SDS011;39219;53.678;9.856;2023-12-22T10:11:20;13.27;;;2.83;;
52838;SDS011;39219;53.678;9.856;2023-12-22T10:13:48;11.75;;;2.78;;
52838;SDS011;39219;53.678;9.856;2023-12-22T10:16:16;17.50;;;3.15;;
52838;SDS011;39219;53.678;9.856;2023-12-22T10:18:42;14.55;;;2.97;;
52838;SDS011;39219;53.678;9.856;2023-12-22T10:21:10;18.88;;;2.95;;
52838;SDS011;39219;53.678;9.856;2023-12-22T10:23:37;16.20;;;3.22;;
52838;SDS011;39219;53.678;9.856;2023-12-22T10:26:03;18.30;;;2.70;;
52838;SDS011;39219;53.678;9.856;2023-12-22T10:28:30;15.07;;;3.08;;
52838;SDS011;39219;53.678;9.856;2023-12-22T10:30:56;17.08;;;3.65;;
52838;SDS011;39219;53.678;9.856;2023-12-22T10:33:29;15.05;;;2.92;;
52838;SDS011;39219;53.678;9.856;2023-12-22T10:35:55;15.38;;;2.63;;
52838;SDS011;39219;53.678;9.856;2023-12-22T10:38:23;17.10;;;3.08;;
52838;SDS011;39219;53.678;9.856;2023-12-22T10:40:49;14.93;;;3.13;;
52838;SDS011;39219;53.678;9.856;2023-12-22T10:43:16;14.07;;;2.88;;
52838;SDS011;39219;53.678;9.856;2023-12-22T10:45:42;16.38;;;2.80;;
52838;SDS011;39219;53.678;9.856;2023-12-22T10:48:08;12.80;;;2.33;;
52838;SDS011;39219;53.678;9.856;2023-12-22T10:50:34;10.05;;;2.50;;
52838;SDS011;39219;53.678;9.856;2023-12-22T10:53:01;13.98;;;2.40;;
52838;SDS011;39219;53.678;9.856;2023-12-22T10:55:28;14.60;;;2.63;;
52838;SDS011;39219;53.678;9.856;2023-12-22T10:57:55;8.13;;;2.13;;
52838;SDS011;39219;53.678;9.856;2023-12-22T11:00:21;12.77;;;2.72;;
52838;SDS011;39219;53.678;9.856;2023-12-22T11:02:48;11.63;;;2.50;;
52838;SDS011;39219;53.678;9.856;2023-12-22T11:05:15;12.63;;;2.72;;
52838;SDS011;39219;53.678;9.856;2023-12-22T11:07:44;20.08;;;3.00;;
52838;SDS011;39219;53.678;9.856;2023-12-22T11:10:14;17.38;;;3.30;;
52838;SDS011;39219;53.678;9.856;2023-12-22T11:12:45;12.38;;;2.25;;
52838;SDS011;39219;53.678;9.856;2023-12-22T11:15:12;13.68;;;2.42;;
52838;SDS011;39219;53.678;9.856;2023-12-22T11:17:40;13.85;;;2.70;;
52838;SDS011;39219;53.678;9.856;2023-12-22T11:20:09;16.60;;;2.80;;
52838;SDS011;39219;53.678;9.856;2023-12-22T11:22:35;14.25;;;2.60;;
52838;SDS011;39219;53.678;9.856;2023-12-22T11:25:02;11.93;;;2.75;;
52838;SDS011;39219;53.678;9.856;2023-12-22T11:27:28;13.85;;;2.53;;
52838;SDS011;39219;53.678;9.856;2023-12-22T11:29:56;13.88;;;2.50;;
52838;SDS011;39219;53.678;9.856;2023-12-22T11:32:23;10.50;;;2.13;;
52838;SDS011;39219;53.678;9.856;2023-12-22T11:34:50;13.32;;;2.70;;
52838;SDS011;39219;53.678;9.856;2023-12-22T11:37:16;15.50;;;2.53;;
52838;SDS011;39219;53.678;9.856;2023-12-22T11:39:43;12.75;;;2.30;;
52838;SDS011;39219;53.678;9.856;2023-12-22T11:42:11;13.95;;;2.55;;
52838;SDS011;39219;53.678;9.856;2023-12-22T11:44:38;10.70;;;2.40;;
52838;SDS011;39219;53.678;9.856;2023-12-22T11:47:07;11.23;;;2.70;;
52838;SDS011;39219;53.678;9.856;2023-12-22T11:49:34;12.98;;;2.63;;
52838;SDS011;39219;53.678;9.856;2023-12-22T11:52:09;17.73;;;2.63;;
52838;SDS011;39219;53.678;9.856;2023-12-22T11:54:44;12.85;;;2.08;;
52838;SDS011;39219;53.678;9.856;2023-12-22T11:57:33;14.77;;;2.70;;
52838;SDS011;39219;53.678;9.856;2023-12-22T12:00:04;10.75;;;2.55;;
52838;SDS011;39219;53.678;9.856;2023-12-22T12:02:34;17.08;;;3.33;;
52838;SDS011;39219;53.678;9.856;2023-12-22T12:05:02;17.30;;;3.03;;
52838;SDS011;39219;53.678;9.856;2023-12-22T12:07:38;17.48;;;2.88;;
52838;SDS011;39219;53.678;9.856;2023-12-22T12:10:05;12.05;;;2.47;;
52838;SDS011;39219;53.678;9.856;2023-12-22T12:12:31;15.48;;;2.75;;
52838;SDS011;39219;53.678;9.856;2023-12-22T12:15:01;13.80;;;2.65;;
52838;SDS011;39219;53.678;9.856;2023-12-22T12:17:28;14.10;;;2.35;;
52838;SDS011;39219;53.678;9.856;2023-12-22T12:19:56;11.93;;;2.70;;
52838;SDS011;39219;53.678;9.856;2023-12-22T12:22:24;11.90;;;2.50;;
52838;SDS011;39219;53.678;9.856;2023-12-22T12:24:51;13.85;;;2.50;;
52838;SDS011;39219;53.678;9.856;2023-12-22T12:27:17;14.45;;;3.10;;
52838;SDS011;39219;53.678;9.856;2023-12-22T12:29:44;9.95;;;2.63;;
52838;SDS011;39219;53.678;9.856;2023-12-22T12:32:12;11.88;;;2.65;;
52838;SDS011;39219;53.678;9.856;2023-12-22T12:34:40;15.88;;;2.30;;
52838;SDS011;39219;53.678;9.856;2023-12-22T12:37:07;16.33;;;2.45;;
52838;SDS011;39219;53.678;9.856;2023-12-22T12:39:34;7.88;;;1.80;;
52838;SDS011;39219;53.678;9.856;2023-12-22T12:42:01;18.50;;;2.80;;
52838;SDS011;39219;53.678;9.856;2023-12-22T12:44:28;14.75;;;3.10;;
52838;SDS011;39219;53.678;9.856;2023-12-22T12:46:55;11.48;;;2.40;;
52838;SDS011;39219;53.678;9.856;2023-12-22T12:49:21;11.52;;;2.40;;
52838;SDS011;39219;53.678;9.856;2023-12-22T12:51:52;11.60;;;2.38;;
52838;SDS011;39219;53.678;9.856;2023-12-22T12:54:20;10.32;;;1.90;;
52838;SDS011;39219;53.678;9.856;2023-12-22T12:56:46;11.52;;;2.22;;
52838;SDS011;39219;53.678;9.856;2023-12-22T12:59:14;16.13;;;3.55;;
52838;SDS011;39219;53.678;9.856;2023-12-22T13:01:41;11.77;;;3.28;;
52838;SDS011;39219;53.678;9.856;2023-12-22T13:04:08;11.60;;;2.20;;
52838;SDS011;39219;53.678;9.856;2023-12-22T13:06:34;13.15;;;2.58;;
52838;SDS011;39219;53.678;9.856;2023-12-22T13:09:01;17.77;;;2.50;;
52838;SDS011;39219;53.678;9.856;2023-12-22T13:11:29;17.40;;;2.97;;
52838;SDS011;39219;53.678;9.856;2023-12-22T13:13:57;13.60;;;2.60;;
52838;SDS011;39219;53.678;9.856;2023-12-22T13:16:23;17.23;;;2.60;;
52838;SDS011;39219;53.678;9.856;2023-12-22T13:18:51;15.98;;;3.03;;
52838;SDS011;39219;53.678;9.856;2023-12-22T13:21:17;14.52;;;2.80;;
52838;SDS011;39219;53.678;9.856;2023-12-22T13:23:44;16.65;;;2.72;;
52838;SDS011;39219;53.678;9.856;2023-12-22T13:26:17;16.52;;;2.58;;
52838;SDS011;39219;53.678;9.856;2023-12-22T13:28:45;12.35;;;2.40;;
52838;SDS011;39219;53.678;9.856;2023-12-22T13:31:11;18.80;;;3.22;;
52838;SDS011;39219;53.678;9.856;2023-12-22T13:33:39;14.60;;;2.47;;
52838;SDS011;39219;53.678;9.856;2023-12-22T13:36:05;15.02;;;3.00;;
52838;SDS011;39219;53.678;9.856;2023-12-22T13:38:32;13.25;;;2.72;;
52838;SDS011;39219;53.678;9.856;2023-12-22T13:40:58;16.17;;;2.40;;
52838;SDS011;39219;53.678;9.856;2023-12-22T13:43:27;14.75;;;3.00;;
52838;SDS011;39219;53.678;9.856;2023-12-22T13:45:54;13.75;;;2.70;;
52838;SDS011;39219;53.678;9.856;2023-12-22T13:48:20;14.40;;;2.50;;
52838;SDS011;39219;53.678;9.856;2023-12-22T13:50:54;15.30;;;2.65;;
52838;SDS011;39219;53.678;9.856;2023-12-22T13:53:21;14.30;;;2.73;;
52838;SDS011;39219;53.678;9.856;2023-12-22T13:55:53;13.90;;;2.67;;
52838;SDS011;39219;53.678;9.856;2023-12-22T13:58:19;14.80;;;2.38;;
52838;SDS011;39219;53.678;9.856;2023-12-22T14:00:45;15.63;;;2.67;;
52838;SDS011;39219;53.678;9.856;2023-12-22T14:03:13;16.90;;;2.80;;
52838;SDS011;39219;53.678;9.856;2023-12-22T14:05:41;15.77;;;3.00;;
52838;SDS011;39219;53.678;9.856;2023-12-22T14:08:07;12.95;;;2.80;;
52838;SDS011;39219;53.678;9.856;2023-12-22T14:10:34;14.70;;;2.78;;
52838;SDS011;39219;53.678;9.856;2023-12-22T14:13:00;9.20;;;1.80;;
52838;SDS011;39219;53.678;9.856;2023-12-22T14:15:26;12.00;;;2.50;;
52838;SDS011;39219;53.678;9.856;2023-12-22T14:17:54;12.13;;;2.58;;
52838;SDS011;39219;53.678;9.856;2023-12-22T14:20:21;12.63;;;2.50;;
52838;SDS011;39219;53.678;9.856;2023-12-22T14:22:48;9.13;;;2.40;;
52838;SDS011;39219;53.678;9.856;2023-12-22T14:25:14;19.10;;;3.15;;
52838;SDS011;39219;53.678;9.856;2023-12-22T14:27:40;13.65;;;2.13;;
52838;SDS011;39219;53.678;9.856;2023-12-22T14:30:08;16.10;;;2.00;;
52838;SDS011;39219;53.678;9.856;2023-12-22T14:32:34;15.95;;;2.53;;
52838;SDS011;39219;53.678;9.856;2023-12-22T14:35:00;10.80;;;2.30;;
52838;SDS011;39219;53.678;9.856;2023-12-22T14:37:28;9.88;;;2.13;;